createdAt,value
2023-03-06T00:04:08.919Z,13.17
2023-03-06T00:09:13.687Z,11.70
2023-03-06T00:14:17.270Z,11.47
2023-03-06T00:19:20.576Z,13.03
2023-03-06T00:24:25.322Z,12.20
2023-03-06T00:29:28.597Z,11.87
2023-03-06T00:34:31.924Z,13.77
2023-03-06T00:39:37.120Z,14.70
2023-03-06T00:44:40.686Z,16.10
2023-03-06T00:49:44.212Z,12.23
2023-03-06T00:54:48.924Z,12.93
2023-03-06T00:59:52.368Z,13.20
2023-03-06T01:04:55.766Z,13.27
2023-03-06T01:10:01.724Z,14.13
2023-03-06T01:15:05.766Z,13.47
2023-03-06T01:20:10.319Z,12.63
2023-03-06T01:25:15.066Z,12.60
2023-03-06T01:30:18.864Z,11.93
2023-03-06T01:35:22.166Z,12.50
2023-03-06T01:40:27.089Z,13.70
2023-03-06T01:46:22.051Z,10.83
2023-03-06T01:51:29.760Z,12.43
2023-03-06T01:56:34.823Z,13.70
2023-03-06T02:01:40.541Z,12.57
2023-03-06T02:06:44.340Z,13.23
2023-03-06T02:11:49.127Z,12.53
2023-03-06T02:16:53.078Z,11.33
2023-03-06T02:21:57.058Z,12.73
2023-03-06T02:27:04.733Z,12.83
2023-03-06T02:32:08.490Z,14.17
2023-03-06T02:37:12.489Z,13.97
2023-03-06T02:42:22.528Z,13.40
2023-03-06T02:47:26.040Z,14.20
2023-03-06T02:52:29.620Z,12.37
2023-03-06T02:57:34.380Z,11.87
2023-03-06T03:02:37.898Z,12.87
2023-03-06T03:07:41.351Z,11.83
2023-03-06T03:12:46.268Z,12.87
2023-03-06T03:17:49.616Z,14.47
2023-03-06T03:22:55.138Z,11.77
2023-03-06T03:27:59.934Z,12.90
2023-03-06T03:33:03.607Z,13.30
2023-03-06T03:38:06.987Z,12.87
2023-03-06T03:43:11.769Z,12.17
2023-03-06T03:48:15.123Z,13.33
2023-03-06T03:53:18.482Z,11.97
2023-03-06T03:58:23.246Z,12.03
2023-03-06T04:03:26.595Z,14.40
2023-03-06T04:08:30.027Z,12.73
2023-03-06T04:13:34.708Z,13.00
2023-03-06T04:18:37.991Z,12.70
2023-03-06T04:23:41.288Z,13.67
2023-03-06T04:28:46.019Z,12.53
2023-03-06T04:33:49.323Z,12.37
2023-03-06T04:38:52.643Z,12.30
2023-03-06T04:43:57.411Z,12.43
2023-03-06T04:49:00.739Z,11.47
2023-03-06T04:54:04.358Z,13.33
2023-03-06T04:59:09.494Z,15.07
2023-03-06T05:04:12.863Z,12.47
2023-03-06T05:09:16.270Z,12.50
2023-03-06T05:14:21.863Z,12.13
2023-03-06T05:19:25.358Z,10.97
2023-03-06T05:24:28.675Z,11.67
2023-03-06T05:29:33.442Z,13.40
2023-03-06T05:34:36.817Z,12.20
2023-03-06T05:39:40.091Z,12.47
2023-03-06T05:44:44.790Z,12.33
2023-03-06T05:49:48.065Z,11.97
2023-03-06T05:54:52.361Z,14.53
2023-03-06T05:59:57.083Z,11.43
2023-03-06T06:05:00.433Z,11.83
2023-03-06T06:10:04.369Z,13.97
2023-03-06T06:15:10.073Z,13.97
2023-03-06T06:20:14.367Z,12.07
2023-03-06T06:25:17.827Z,14.83
2023-03-06T06:30:23.283Z,13.90
2023-03-06T06:35:26.994Z,13.80
2023-03-06T06:40:30.447Z,13.10
2023-03-06T06:45:35.218Z,13.27
2023-03-06T06:50:39.269Z,14.70
2023-03-06T06:55:43.092Z,15.77
2023-03-06T07:00:47.887Z,13.60
2023-03-06T07:05:57.769Z,16.33
2023-03-06T07:11:07.036Z,16.13
2023-03-06T07:16:12.378Z,16.27
2023-03-06T07:21:15.780Z,13.60
2023-03-06T07:26:19.072Z,14.27
2023-03-06T07:31:26.471Z,16.20
2023-03-06T07:36:29.918Z,15.13
2023-03-06T07:41:33.159Z,17.90
2023-03-06T07:46:37.918Z,17.07
2023-03-06T07:51:41.440Z,15.73
2023-03-06T07:56:44.791Z,15.80
2023-03-06T08:01:49.506Z,22.17
2023-03-06T08:06:53.629Z,16.60
2023-03-06T08:11:57.035Z,16.43
2023-03-06T08:17:01.726Z,14.70
2023-03-06T08:22:06.037Z,14.70
2023-03-06T08:27:09.302Z,16.47
2023-03-06T08:32:14.331Z,13.80
2023-03-06T08:37:17.701Z,15.20
2023-03-06T08:42:21.008Z,15.57
2023-03-06T08:47:25.666Z,16.13
2023-03-06T08:52:28.955Z,17.07
2023-03-06T08:57:32.436Z,13.73
2023-03-06T09:02:37.249Z,16.83
2023-03-06T09:07:40.609Z,15.67
2023-03-06T09:12:50.190Z,14.23
2023-03-06T09:17:56.303Z,14.23
2023-03-06T09:23:01.248Z,13.70
2023-03-06T09:28:11.697Z,16.30
2023-03-06T09:33:20.283Z,13.27
2023-03-06T09:38:25.890Z,13.10
2023-03-06T09:43:33.073Z,13.13
2023-03-06T09:48:44.153Z,12.23
2023-03-06T09:53:58.234Z,14.57
2023-03-06T09:59:08.329Z,13.90
2023-03-06T10:04:33.668Z,13.87
2023-03-06T10:09:46.951Z,16.10
2023-03-06T10:14:59.811Z,12.33
2023-03-06T10:20:16.333Z,14.13
2023-03-06T10:30:53.251Z,14.17
2023-03-06T10:35:58.689Z,13.87
2023-03-06T10:41:27.598Z,12.73
2023-03-06T10:46:32.971Z,14.33
2023-03-06T10:51:38.227Z,12.07
2023-03-06T10:56:43.304Z,13.23
2023-03-06T11:01:48.890Z,14.50
2023-03-06T11:07:07.976Z,14.67
2023-03-06T11:12:29.358Z,14.90
2023-03-06T11:17:32.681Z,14.60
2023-03-06T11:22:41.362Z,13.30
2023-03-06T11:27:46.593Z,14.60
2023-03-06T11:32:55.149Z,12.97
2023-03-06T11:38:06.994Z,11.33
2023-03-06T11:43:20.838Z,14.33
2023-03-06T11:48:29.112Z,16.60
2023-03-06T11:53:35.021Z,15.17
2023-03-06T11:59:09.855Z,15.70
2023-03-06T12:04:39.886Z,14.97
2023-03-06T12:09:51.908Z,15.60
2023-03-06T12:15:18.044Z,18.03
2023-03-06T12:20:53.671Z,14.93
2023-03-06T12:26:05.146Z,14.80
2023-03-06T12:31:33.421Z,16.50
2023-03-06T12:36:51.609Z,14.93
2023-03-06T12:42:11.484Z,15.53
2023-03-06T12:47:23.235Z,16.23
2023-03-06T12:52:30.461Z,18.73
2023-03-06T12:57:35.399Z,16.63
2023-03-06T13:02:56.029Z,13.67
2023-03-06T13:08:13.258Z,15.63
2023-03-06T13:13:35.162Z,12.37
2023-03-06T13:19:03.579Z,17.30
2023-03-06T13:24:07.539Z,15.87
2023-03-06T13:29:51.016Z,16.70
2023-03-06T13:34:54.337Z,17.53
2023-03-06T13:40:31.078Z,14.00
2023-03-06T13:45:39.745Z,16.60
2023-03-06T13:50:44.750Z,16.57
2023-03-06T13:55:59.381Z,16.87
2023-03-06T14:01:18.498Z,15.80
2023-03-06T14:06:54.647Z,14.60
2023-03-06T14:12:02.880Z,16.10
2023-03-06T14:17:08.451Z,18.27
2023-03-06T14:22:18.358Z,18.27
2023-03-06T14:27:21.910Z,18.17
2023-03-06T14:32:26.779Z,15.77
2023-03-06T14:37:32.206Z,17.87
2023-03-06T14:42:35.547Z,15.93
2023-03-06T14:47:40.713Z,15.97
2023-03-06T14:52:45.902Z,14.70
2023-03-06T14:57:52.770Z,16.70
2023-03-06T15:02:58.098Z,16.50
2023-03-06T15:08:06.341Z,17.23
2023-03-06T15:13:11.553Z,17.77
2023-03-06T15:18:29.538Z,15.87
2023-03-06T15:23:38.545Z,15.87
2023-03-06T15:28:41.987Z,18.37
2023-03-06T15:34:00.800Z,21.20
2023-03-06T15:39:24.670Z,17.00
2023-03-06T15:44:29.500Z,20.20
2023-03-06T15:49:34.855Z,18.17
2023-03-06T15:54:39.020Z,23.07
2023-03-06T15:59:45.796Z,20.33
2023-03-06T16:04:50.697Z,20.57
2023-03-06T16:09:56.870Z,22.73
2023-03-06T16:15:03.473Z,20.07
2023-03-06T16:20:15.370Z,17.67
2023-03-06T16:25:19.354Z,18.67
2023-03-06T16:30:24.196Z,18.60
2023-03-06T16:35:30.237Z,19.00
2023-03-06T16:40:38.226Z,17.17
2023-03-06T16:45:43.339Z,16.80
2023-03-06T16:50:48.699Z,18.17
2023-03-06T16:55:53.223Z,20.50
2023-03-06T17:00:57.285Z,17.07
2023-03-06T17:06:02.597Z,15.83
2023-03-06T17:11:07.986Z,15.07
2023-03-06T17:16:16.155Z,15.90
2023-03-06T17:21:21.541Z,16.77
2023-03-06T17:26:26.222Z,17.97
2023-03-06T17:31:30.501Z,14.47
2023-03-06T17:36:36.038Z,15.47
2023-03-06T17:41:40.670Z,14.60
2023-03-06T17:46:44.481Z,14.63
2023-03-06T17:51:50.353Z,16.57
2023-03-06T17:56:55.420Z,16.03
2023-03-06T18:02:00.414Z,15.10
2023-03-06T18:07:06.489Z,15.57
2023-03-06T18:12:12.335Z,19.03
2023-03-06T18:17:17.288Z,18.77
2023-03-06T18:22:23.896Z,16.00
2023-03-06T18:27:29.862Z,15.47
2023-03-06T18:32:33.987Z,15.63
2023-03-06T18:37:42.381Z,16.73
2023-03-06T18:42:47.067Z,16.97
2023-03-06T18:47:51.702Z,15.43
2023-03-06T18:52:56.884Z,14.23
2023-03-06T18:58:07.537Z,13.90
2023-03-06T19:03:12.139Z,17.67
2023-03-06T19:08:20.305Z,14.20
2023-03-06T19:13:25.692Z,15.10
2023-03-06T19:18:31.876Z,13.17
2023-03-06T19:23:38.627Z,14.20
2023-03-06T19:28:45.057Z,13.60
2023-03-06T19:33:51.196Z,15.07
2023-03-06T19:39:01.746Z,13.77
2023-03-06T19:44:07.064Z,15.10
2023-03-06T19:49:18.631Z,14.50
2023-03-06T19:54:26.203Z,16.27
2023-03-06T19:59:31.345Z,16.73
2023-03-06T20:04:40.314Z,15.57
2023-03-06T20:09:48.334Z,16.33
2023-03-06T20:14:54.534Z,18.43
2023-03-06T20:19:59.561Z,17.10
2023-03-06T20:25:06.458Z,16.40
2023-03-06T20:30:12.352Z,17.30
2023-03-06T20:35:17.499Z,15.67
2023-03-06T20:40:24.461Z,16.70
2023-03-06T20:45:29.816Z,15.77
2023-03-06T20:50:34.448Z,14.73
2023-03-06T20:55:39.961Z,16.17
2023-03-06T21:00:44.029Z,16.73
2023-03-06T21:05:49.487Z,17.80
2023-03-06T21:10:55.171Z,17.13
2023-03-06T21:15:59.013Z,14.20
2023-03-06T21:21:06.724Z,16.87
2023-03-06T21:26:14.441Z,19.20
2023-03-06T21:31:20.405Z,17.13
2023-03-06T21:36:24.838Z,16.33
2023-03-06T21:41:30.664Z,15.03
2023-03-06T21:46:35.205Z,14.33
2023-03-06T21:51:38.551Z,15.87
2023-03-06T21:56:43.296Z,16.50
2023-03-06T22:01:47.689Z,15.53
2023-03-06T22:06:51.072Z,14.27
2023-03-06T22:11:55.818Z,15.47
2023-03-06T22:16:59.157Z,15.23
2023-03-06T22:22:02.489Z,15.07
2023-03-06T22:27:07.371Z,15.00
2023-03-06T22:32:10.824Z,17.53
2023-03-06T22:37:14.240Z,17.50
2023-03-06T22:42:18.985Z,14.43
2023-03-06T22:47:22.298Z,17.20
2023-03-06T22:52:25.660Z,13.87
2023-03-06T22:57:31.139Z,14.80
2023-03-06T23:02:35.830Z,13.57
2023-03-06T23:07:39.120Z,15.93
2023-03-06T23:12:44.247Z,13.63
2023-03-06T23:17:47.562Z,13.07
2023-03-06T23:22:50.869Z,14.70
2023-03-06T23:27:55.833Z,14.70
2023-03-06T23:33:50.386Z,14.57
2023-03-06T23:38:27.623Z,14.33
2023-03-06T23:43:32.494Z,13.70
2023-03-06T23:48:36.901Z,12.67
2023-03-06T23:53:40.187Z,11.90
2023-03-06T23:58:45.605Z,13.37
